Time;durP1;ratioP1;P1;durP2;ratioP2;P2;SDS_P1;SDS_P2;PMS_P1;PMS_P2;Temp;Humidity;BMP_temperature;BMP_pressure;BME280_temperature;BME280_humidity;BME280_pressure;Samples;Min_cycle;Max_cycle;Signal;HPM_P1;HPM_P2
2023/01/17 00:02:12;;;;;;;2.33;2.13;;;4.50;94.70;;;3.51;85.76;97149.38;5010662;28;20420;-70
2023/01/17 00:10:15;;;;;;;2.50;2.30;;;4.50;94.50;;;3.51;86.19;97162.59;5008587;28;20408;-71
2023/01/17 00:12:49;;;;;;;2.47;2.28;;;4.50;94.50;;;3.49;86.51;97156.72;5008385;28;20775;-70
2023/01/17 00:15:18;;;;;;;2.20;2.10;;;4.50;94.50;;;3.50;86.65;97148.56;5008374;28;20471;-70
2023/01/17 00:17:47;;;;;;;2.50;2.30;;;4.50;94.40;;;3.46;86.82;97152.63;5008374;28;20401;-70
2023/01/17 00:26:04;;;;;;;2.55;2.35;;;4.40;94.60;;;3.44;86.95;97153.84;5008085;28;20409;-71
2023/01/17 01:33:36;;;;;;;4.20;3.90;;;4.00;94.70;;;3.06;86.64;97209.09;5026227;28;20432;-70
2023/01/17 01:36:08;;;;;;;4.63;4.28;;;4.10;94.80;;;3.02;87.11;97218.41;5010808;28;20444;-70
2023/01/17 01:38:37;;;;;;;5.10;4.70;;;4.10;94.90;;;3.09;88.11;97224.53;5010345;28;20489;-70
2023/01/17 01:41:06;;;;;;;5.65;5.20;;;4.10;95.30;;;3.16;87.76;97214.81;5011337;28;20408;-70
2023/01/17 01:43:45;;;;;;;5.82;5.32;;;4.10;95.40;;;3.13;88.52;97231.06;5010937;28;20436;-70
2023/01/17 01:46:20;;;;;;;6.15;5.60;;;4.10;95.40;;;3.14;88.33;97211.56;5010560;28;20905;-70
2023/01/17 01:48:53;;;;;;;6.60;6.10;;;4.10;95.60;;;3.11;88.87;97211.97;5010892;28;20421;-70
2023/01/17 01:51:29;;;;;;;6.40;5.90;;;4.10;95.70;;;3.11;88.53;97227.00;5010903;28;20413;-70
2023/01/17 01:54:06;;;;;;;6.20;5.70;;;4.10;95.70;;;3.17;87.87;97221.75;5010385;28;20416;-70
2023/01/17 01:56:35;;;;;;;6.07;5.57;;;4.20;95.10;;;3.21;86.98;97225.63;5010598;28;21198;-69
2023/01/17 01:59:09;;;;;;;6.75;6.22;;;4.20;94.90;;;3.22;86.67;97224.56;5010683;28;20412;-70
2023/01/17 02:01:37;;;;;;;6.75;6.25;;;4.20;94.70;;;3.24;87.36;97230.50;5023951;28;20406;-70
2023/01/17 02:04:08;;;;;;;6.85;6.35;;;4.20;94.90;;;3.25;86.85;97234.78;5030561;28;20490;-70
2023/01/17 02:06:43;;;;;;;7.00;6.50;;;4.30;94.90;;;3.26;87.07;97227.63;5030304;28;20405;-70
2023/01/17 02:09:14;;;;;;;6.93;6.43;;;4.30;94.80;;;3.26;86.33;97235.56;5030451;28;20422;-70
2023/01/17 02:11:45;;;;;;;7.10;6.60;;;4.20;94.50;;;3.25;86.10;97229.50;5030575;28;20403;-70
2023/01/17 02:14:15;;;;;;;7.57;6.97;;;4.30;94.30;;;3.30;85.74;97232.34;5030326;28;20498;-70
2023/01/17 02:17:05;;;;;;;7.22;6.72;;;4.30;94.40;;;3.27;85.83;97243.31;5029935;28;20407;-70
2023/01/17 02:20:19;;;;;;;7.95;7.35;;;4.30;94.20;;;3.25;85.51;97257.75;5029854;28;20399;-70
2023/01/17 02:23:27;;;;;;;7.65;7.05;;;4.30;94.10;;;3.23;85.51;97257.94;5030204;28;20415;-70
2023/01/17 02:27:00;;;;;;;6.28;5.85;;;4.30;94.20;;;3.24;85.67;97256.13;5029943;28;20407;-70
2023/01/17 02:30:19;;;;;;;5.70;5.30;;;4.20;94.00;;;3.22;85.43;97255.50;4988119;28;20434;-71
2023/01/17 02:33:22;;;;;;;5.28;4.88;;;4.20;94.00;;;3.21;85.42;97259.97;5021839;28;20408;-70
2023/01/17 02:36:03;;;;;;;5.72;5.32;;;4.20;93.90;;;3.16;85.53;97278.25;5029818;28;20411;-70
2023/01/17 02:38:43;;;;;;;5.20;4.80;;;4.20;94.10;;;3.12;85.94;97271.72;5029216;28;20457;-70
2023/01/17 02:41:21;;;;;;;5.20;4.80;;;4.20;94.30;;;3.08;86.23;97278.44;5029678;28;21000;-70
2023/01/17 02:43:52;;;;;;;4.57;4.28;;;4.10;94.40;;;3.05;85.57;97289.38;5029579;28;20407;-70
2023/01/17 02:46:20;;;;;;;4.65;4.35;;;4.10;94.30;;;3.07;86.09;97282.09;5029385;28;20411;-70
2023/01/17 02:48:51;;;;;;;4.90;4.55;;;4.00;94.40;;;3.02;86.10;97293.22;5029305;28;20781;-71
2023/01/17 02:51:51;;;;;;;4.40;4.10;;;4.00;94.40;;;3.08;86.84;97289.78;5029719;28;20414;-71
2023/01/17 02:55:05;;;;;;;4.65;4.35;;;4.10;94.60;;;3.01;86.33;97293.44;5029218;28;20838;-70
2023/01/17 02:57:58;;;;;;;3.97;3.65;;;4.00;94.50;;;3.00;86.39;97305.03;5028834;28;20415;-71
2023/01/17 03:00:41;;;;;;;4.40;4.10;;;4.00;94.40;;;2.99;86.57;97308.66;5025893;28;20405;-70
2023/01/17 03:03:25;;;;;;;4.90;4.50;;;4.00;94.60;;;3.00;87.27;97319.06;4990005;28;20410;-70
2023/01/17 03:06:10;;;;;;;4.60;4.30;;;4.00;94.80;;;2.98;86.79;97320.22;4989380;28;20414;-70
2023/01/17 03:08:43;;;;;;;4.50;4.20;;;4.00;95.20;;;2.97;86.93;97326.56;4989589;28;20430;-71
2023/01/17 03:11:13;;;;;;;4.40;4.10;;;4.00;94.80;;;2.94;87.08;97327.75;4989918;28;20472;-70
2023/01/17 03:13:41;;;;;;;4.78;4.38;;;4.00;94.80;;;2.94;86.94;97333.06;4989669;28;20405;-70
2023/01/17 03:16:17;;;;;;;4.70;4.40;;;3.90;94.90;;;2.97;87.27;97342.41;4989148;28;20410;-70
2023/01/17 03:18:45;;;;;;;5.03;4.63;;;4.00;95.00;;;2.97;86.64;97353.78;4988666;28;20414;-70
2023/01/17 03:21:14;;;;;;;5.23;4.83;;;3.90;95.00;;;2.99;86.89;97353.59;4988925;28;20406;-70
2023/01/17 03:23:43;;;;;;;4.97;4.57;;;4.00;94.90;;;2.96;86.88;97352.16;4989057;28;20467;-70
2023/01/17 03:26:11;;;;;;;4.20;3.90;;;4.00;94.80;;;2.98;86.48;97354.59;4988186;28;20926;-70
2023/01/17 03:28:39;;;;;;;3.60;3.30;;;4.00;94.40;;;2.99;86.59;97358.88;4989893;28;20469;-70
2023/01/17 03:31:07;;;;;;;4.00;3.60;;;4.00;94.50;;;2.99;86.11;97361.50;4990165;28;20208;-70
2023/01/17 03:33:35;;;;;;;3.50;3.20;;;4.00;94.40;;;3.01;86.60;97355.00;5022268;28;20199;-71
2023/01/17 03:36:04;;;;;;;4.10;3.70;;;4.00;94.50;;;2.99;86.09;97359.69;5029525;28;20224;-71
2023/01/17 03:38:36;;;;;;;4.73;4.33;;;4.00;94.40;;;3.01;86.49;97368.22;5029447;28;20236;-72
2023/01/17 03:41:04;;;;;;;5.10;4.60;;;4.00;94.40;;;3.02;85.00;97359.28;5029795;28;20798;-72
2023/01/17 03:43:32;;;;;;;4.53;4.13;;;4.00;94.00;;;3.03;84.85;97362.75;5029854;28;20218;-72
2023/01/17 03:46:05;;;;;;;4.20;3.80;;;4.00;93.80;;;3.02;85.90;97363.75;5029945;28;20241;-73
2023/01/17 03:48:34;;;;;;;4.20;3.80;;;4.00;94.50;;;3.01;85.48;97365.59;5029904;28;20227;-72
2023/01/17 03:51:02;;;;;;;4.07;3.77;;;4.00;94.10;;;3.05;85.40;97377.41;5029646;28;20653;-72
2023/01/17 03:53:30;;;;;;;3.40;3.10;;;4.10;94.00;;;3.05;85.22;97376.59;5029910;28;20269;-72
2023/01/17 03:55:59;;;;;;;3.50;3.20;;;4.10;93.80;;;3.07;84.76;97374.59;5029298;28;20302;-72
2023/01/17 03:58:27;;;;;;;3.90;3.20;;;4.10;93.70;;;3.13;84.57;97388.81;5029731;28;20230;-72
2023/01/17 04:00:55;;;;;;;4.03;3.17;;;4.10;93.60;;;3.13;84.44;97388.81;5029762;28;20202;-73
2023/01/17 04:03:24;;;;;;;3.97;3.37;;;4.10;93.40;;;3.10;84.15;97394.50;5029678;28;20209;-73
2023/01/17 04:05:52;;;;;;;3.60;3.30;;;4.10;93.50;;;3.10;84.52;97390.03;5029291;28;20205;-72
2023/01/17 04:08:20;;;;;;;4.10;3.20;;;4.10;93.60;;;3.14;84.73;97395.75;5029402;28;20620;-72
2023/01/17 04:10:48;;;;;;;3.80;3.50;;;4.10;93.50;;;3.12;85.25;97398.59;5029626;28;20238;-73
2023/01/17 04:13:17;;;;;;;4.70;3.60;;;4.10;93.70;;;3.10;84.74;97395.31;5029738;28;20222;-72
2023/01/17 04:15:48;;;;;;;3.70;3.40;;;4.10;93.70;;;3.08;84.91;97398.16;5029522;28;20195;-72
2023/01/17 04:18:18;;;;;;;4.20;3.60;;;4.10;93.80;;;3.09;85.14;97398.97;5029742;28;20233;-72
2023/01/17 04:20:47;;;;;;;4.40;3.53;;;4.10;93.90;;;3.10;85.26;97400.63;5029515;28;20207;-72
2023/01/17 04:23:15;;;;;;;3.80;3.50;;;4.10;93.90;;;3.11;84.56;97401.44;5029258;28;20206;-72
2023/01/17 04:25:43;;;;;;;3.80;3.50;;;4.10;93.70;;;3.15;84.28;97398.19;5029132;28;20357;-72
2023/01/17 04:28:12;;;;;;;3.53;3.23;;;4.20;93.30;;;3.15;83.82;97407.97;5029341;28;20231;-72
2023/01/17 04:30:41;;;;;;;3.43;3.20;;;4.20;93.20;;;3.14;84.28;97411.63;5029479;28;20230;-72
2023/01/17 04:33:09;;;;;;;3.53;3.23;;;4.20;93.40;;;3.17;83.49;97412.03;5029347;28;20268;-72
2023/01/17 04:35:38;;;;;;;3.60;3.30;;;4.20;93.00;;;3.15;83.78;97415.91;5029359;28;20202;-72
2023/01/17 04:38:06;;;;;;;3.67;3.37;;;4.20;93.10;;;3.14;84.13;97420.38;5029232;28;20227;-72
2023/01/17 04:40:34;;;;;;;3.10;2.80;;;4.20;93.30;;;3.16;83.28;97423.63;5029486;28;20222;-72
2023/01/17 04:43:02;;;;;;;3.30;3.10;;;4.20;93.10;;;3.17;83.43;97422.63;5032978;28;20265;-73
2023/01/17 04:45:30;;;;;;;3.40;3.10;;;4.20;92.90;;;3.19;83.16;97420.59;5033278;28;20217;-72
2023/01/17 04:48:05;;;;;;;3.53;2.70;;;4.20;93.00;;;3.18;82.90;97421.63;5033279;28;20464;-73
2023/01/17 04:50:33;;;;;;;2.67;2.47;;;4.20;92.50;;;3.17;82.54;97421.78;5033104;28;20218;-72
2023/01/17 04:53:01;;;;;;;2.93;2.63;;;4.20;92.60;;;3.14;82.75;97427.47;5033312;28;20218;-72
2023/01/17 04:55:29;;;;;;;2.60;2.40;;;4.10;92.60;;;3.10;83.03;97434.97;5033002;28;20218;-72
2023/01/17 04:57:57;;;;;;;2.63;2.43;;;4.10;92.80;;;3.11;83.10;97439.25;5033178;28;20240;-72
2023/01/17 05:00:25;;;;;;;2.60;2.40;;;4.10;92.80;;;3.12;83.82;97435.59;5033114;28;20211;-71
2023/01/17 05:02:54;;;;;;;2.67;2.47;;;4.10;93.40;;;3.04;84.41;97439.22;5033035;28;20207;-72
2023/01/17 05:05:23;;;;;;;2.70;2.50;;;4.00;93.30;;;3.03;84.46;97436.75;5032932;28;20233;-71
2023/01/17 05:07:55;;;;;;;2.73;2.33;;;4.00;93.60;;;3.03;84.82;97455.25;5032618;28;20238;-72
2023/01/17 05:10:24;;;;;;;2.70;2.50;;;4.00;93.70;;;2.97;85.64;97448.94;5032263;28;20304;-73
2023/01/17 05:12:55;;;;;;;2.73;2.53;;;4.00;93.70;;;2.95;85.60;97455.38;5032390;28;20207;-71
2023/01/17 05:15:24;;;;;;;2.70;2.50;;;4.00;94.10;;;2.92;86.29;97464.53;5032581;28;20260;-72
2023/01/17 05:17:53;;;;;;;2.60;2.40;;;3.90;94.30;;;2.90;85.68;97468.38;5032585;28;20223;-71
2023/01/17 05:20:25;;;;;;;2.50;2.30;;;3.90;94.30;;;2.89;86.49;97472.00;5032731;28;20202;-72
2023/01/17 05:22:55;;;;;;;2.20;2.10;;;3.90;94.40;;;2.91;86.40;97480.59;5032893;28;20183;-72
2023/01/17 05:25:23;;;;;;;2.10;1.90;;;3.90;94.40;;;2.88;86.47;97486.22;5032398;28;20722;-73
2023/01/17 05:27:52;;;;;;;1.60;1.50;;;3.90;94.60;;;2.84;85.83;97501.63;5032345;28;20730;-71
2023/01/17 05:30:21;;;;;;;1.50;1.40;;;3.90;94.20;;;2.79;86.71;97516.44;5032002;28;20222;-72
2023/01/17 05:32:51;;;;;;;1.70;1.60;;;3.80;94.80;;;2.74;86.67;97508.28;5032796;28;20202;-72
2023/01/17 05:35:24;;;;;;;1.67;1.57;;;3.70;94.70;;;2.78;86.86;97522.72;5032360;28;20217;-73
2023/01/17 05:37:53;;;;;;;1.50;1.40;;;3.80;94.80;;;2.71;87.06;97533.22;5032207;28;20226;-72
2023/01/17 05:40:23;;;;;;;1.53;1.43;;;3.70;94.80;;;2.63;86.62;97535.19;5032216;28;20694;-72
2023/01/17 05:42:55;;;;;;;1.60;1.50;;;3.70;94.60;;;2.59;87.68;97544.47;5032118;28;20222;-72
2023/01/17 05:45:26;;;;;;;1.70;1.60;;;3.60;95.00;;;2.52;87.39;97553.16;5032309;28;20211;-73
2023/01/17 05:47:57;;;;;;;1.23;1.20;;;3.50;95.00;;;2.45;86.85;97567.28;5032157;28;20227;-72
2023/01/17 05:50:29;;;;;;;1.60;1.50;;;3.50;94.90;;;2.46;87.39;97584.78;5031995;28;20578;-72
2023/01/17 05:53:00;;;;;;;2.27;1.20;;;3.50;95.20;;;2.31;86.59;97578.69;5030818;28;20289;-72
2023/01/17 05:55:30;;;;;;;2.53;1.10;;;3.40;94.70;;;2.26;86.25;97587.16;5032135;28;20206;-73
2023/01/17 05:57:58;;;;;;;2.80;1.10;;;3.30;94.30;;;2.29;85.28;97592.09;5031698;28;20252;-73
2023/01/17 06:00:27;;;;;;;2.13;1.20;;;3.30;94.00;;;2.26;85.25;97592.44;5028236;28;20203;-72
2023/01/17 06:02:57;;;;;;;2.43;1.23;;;3.30;94.00;;;2.22;85.69;97593.84;5012125;28;20215;-71
2023/01/17 06:05:28;;;;;;;2.30;1.33;;;3.30;93.90;;;2.24;85.43;97607.66;5011916;28;20207;-72
2023/01/17 06:07:56;;;;;;;2.13;1.10;;;3.30;94.00;;;2.22;85.50;97612.31;5011790;28;20234;-72
2023/01/17 06:10:25;;;;;;;1.60;1.20;;;3.30;94.10;;;2.25;85.77;97625.13;5011885;28;20262;-72
2023/01/17 06:13:02;;;;;;;1.57;0.90;;;3.30;94.20;;;2.09;85.58;97624.50;5011835;28;20636;-72
2023/01/17 06:15:30;;;;;;;1.70;1.00;;;3.20;94.20;;;1.93;86.55;97636.03;5011788;28;20192;-73
2023/01/17 06:18:04;;;;;;;1.47;1.13;;;3.00;94.50;;;1.88;86.56;97638.44;5011576;28;20750;-72
2023/01/17 06:20:33;;;;;;;2.07;1.30;;;3.00;94.80;;;1.77;87.27;97644.13;5011545;28;20188;-72
2023/01/17 06:23:03;;;;;;;2.70;1.33;;;2.80;94.80;;;1.71;87.14;97640.41;5011364;28;20207;-72
2023/01/17 06:25:36;;;;;;;1.40;1.30;;;2.80;95.00;;;1.66;87.38;97647.22;5011327;28;20207;-72
2023/01/17 06:28:05;;;;;;;1.67;1.50;;;2.70;95.10;;;1.64;87.39;97646.56;5011352;28;20234;-72
2023/01/17 06:30:33;;;;;;;1.60;1.50;;;2.70;95.10;;;1.67;87.48;97654.94;5011028;28;20236;-72
2023/01/17 06:33:02;;;;;;;1.40;1.30;;;2.70;95.20;;;1.62;87.88;97667.00;5011242;28;20214;-72
2023/01/17 06:35:30;;;;;;;1.60;1.37;;;2.70;95.30;;;1.60;88.13;97669.84;5011066;28;20734;-72
2023/01/17 06:38:00;;;;;;;1.57;1.47;;;2.70;95.30;;;1.66;88.01;97679.69;5011384;28;20242;-74
2023/01/17 06:40:30;;;;;;;1.70;1.60;;;2.70;95.40;;;1.67;87.68;97688.41;5011193;28;20203;-72
2023/01/17 06:43:00;;;;;;;1.57;1.47;;;2.70;95.30;;;1.69;87.50;97695.13;5011065;28;20219;-72
2023/01/17 06:45:29;;;;;;;1.70;1.50;;;2.80;95.20;;;1.74;88.01;97703.34;5010945;28;20206;-73
2023/01/17 06:47:58;;;;;;;2.07;1.87;;;2.80;95.30;;;1.70;87.70;97706.50;5010945;28;20731;-73
2023/01/17 06:50:27;;;;;;;2.23;1.63;;;2.80;95.20;;;1.78;87.01;97715.16;5011082;28;20302;-73
2023/01/17 06:52:57;;;;;;;4.63;1.80;;;2.80;95.10;;;1.72;87.03;97712.41;5011301;28;20203;-72
2023/01/17 06:55:28;;;;;;;3.10;2.00;;;2.80;94.90;;;1.75;87.29;97731.34;5010627;28;20214;-72
2023/01/17 06:57:58;;;;;;;2.80;1.83;;;2.80;95.00;;;1.69;87.08;97731.22;5010566;28;20228;-72
2023/01/17 07:00:27;;;;;;;4.00;2.10;;;2.80;94.90;;;1.71;86.98;97742.44;5011141;28;20291;-72
2023/01/17 07:02:56;;;;;;;2.50;2.07;;;2.80;95.00;;;1.73;87.51;97753.63;5010812;28;20668;-72
2023/01/17 07:05:24;;;;;;;2.27;1.80;;;2.80;95.00;;;1.61;87.52;97755.06;5010378;28;20223;-71
2023/01/17 07:07:53;;;;;;;4.07;1.83;;;2.70;94.90;;;1.49;86.96;97757.25;5010390;28;20832;-72
2023/01/17 07:10:22;;;;;;;2.70;1.60;;;2.60;95.00;;;1.40;88.05;97764.41;5010643;28;20219;-72
2023/01/17 07:12:51;;;;;;;3.87;1.70;;;2.50;95.20;;;1.42;88.31;97780.88;5010707;28;20195;-72
2023/01/17 07:15:19;;;;;;;2.43;1.70;;;2.50;95.50;;;1.41;87.73;97776.59;5010486;28;20203;-72
2023/01/17 07:17:47;;;;;;;4.13;2.10;;;2.50;95.50;;;1.45;88.25;97791.06;5010536;28;20215;-72
2023/01/17 07:20:16;;;;;;;2.57;1.73;;;2.50;95.50;;;1.47;88.25;97781.16;5010664;28;20210;-72
2023/01/17 07:22:45;;;;;;;5.67;2.60;;;2.60;95.60;;;1.46;88.18;97784.81;5010443;28;20209;-72
2023/01/17 07:25:13;;;;;;;4.47;2.40;;;2.60;95.60;;;1.50;87.53;97801.91;5010164;28;20207;-71
2023/01/17 07:27:41;;;;;;;2.87;2.40;;;2.60;95.40;;;1.58;87.64;97800.19;5010305;28;20230;-72
2023/01/17 07:30:13;;;;;;;3.17;2.60;;;2.60;95.70;;;1.65;87.76;97803.78;5009926;28;20211;-72
2023/01/17 07:32:41;;;;;;;5.60;2.10;;;2.70;95.50;;;1.64;87.47;97795.06;5010095;28;20227;-72
2023/01/17 07:35:09;;;;;;;2.20;1.50;;;2.70;95.50;;;1.63;87.58;97805.78;5010230;28;20207;-71
2023/01/17 07:37:38;;;;;;;4.13;2.00;;;2.70;95.10;;;1.62;87.23;97804.94;5010154;28;20215;-72
2023/01/17 07:40:08;;;;;;;6.80;1.80;;;2.70;95.20;;;1.63;87.20;97811.06;5010385;28;20300;-72
2023/01/17 07:42:36;;;;;;;4.90;1.70;;;2.70;95.20;;;1.65;87.92;97809.06;5010243;28;20265;-72
2023/01/17 07:45:06;;;;;;;1.83;1.67;;;2.70;95.30;;;1.65;86.85;97809.88;5009981;28;20710;-72
2023/01/17 07:47:36;;;;;;;2.93;1.70;;;2.70;95.00;;;1.64;86.98;97807.44;5010030;28;20222;-71
2023/01/17 07:50:05;;;;;;;2.93;1.60;;;2.70;94.80;;;1.57;86.77;97812.59;5010177;28;20211;-72
2023/01/17 07:52:33;;;;;;;3.17;1.70;;;2.60;94.90;;;1.57;86.66;97814.41;5009881;28;20881;-73
2023/01/17 07:55:01;;;;;;;1.83;1.50;;;2.60;94.90;;;1.57;87.36;97817.84;5010163;28;20230;-73
2023/01/17 07:57:31;;;;;;;3.57;1.73;;;2.70;95.10;;;1.60;87.39;97811.41;5009522;28;20216;-73
2023/01/17 07:59:59;;;;;;;1.93;1.77;;;2.70;95.00;;;1.62;87.22;97812.03;5009970;28;20249;-73
2023/01/17 08:02:27;;;;;;;2.70;1.70;;;2.70;95.00;;;1.59;86.78;97815.84;5009579;28;20799;-72
2023/01/17 08:04:56;;;;;;;2.50;1.70;;;2.70;94.90;;;1.62;86.93;97825.22;5009847;28;20805;-72
2023/01/17 08:07:24;;;;;;;4.10;2.10;;;2.70;94.90;;;1.61;87.17;97827.03;5009523;28;20227;-72
2023/01/17 08:09:54;;;;;;;4.27;2.57;;;2.70;94.90;;;1.59;87.15;97829.03;5009919;28;20227;-72
2023/01/17 08:12:22;;;;;;;3.93;2.10;;;2.70;95.00;;;1.64;86.81;97839.91;5009660;28;20297;-73
2023/01/17 08:14:50;;;;;;;4.43;2.37;;;2.70;94.90;;;1.65;87.07;97835.41;5009566;28;20682;-72
2023/01/17 08:17:19;;;;;;;7.03;2.60;;;2.70;94.90;;;1.68;86.84;97845.66;5009165;28;20370;-72
2023/01/17 08:19:50;;;;;;;4.97;2.40;;;2.70;94.80;;;1.66;85.77;97847.63;5009924;28;20334;-73
2023/01/17 08:22:19;;;;;;;4.23;2.70;;;2.70;94.50;;;1.68;85.69;97848.28;5009831;28;20210;-72
2023/01/17 08:24:47;;;;;;;5.03;2.27;;;2.80;94.40;;;1.69;85.24;97847.25;5010041;28;20217;-72
2023/01/17 08:27:15;;;;;;;4.90;2.33;;;2.80;94.10;;;1.70;85.88;97859.47;5009788;28;20207;-72
2023/01/17 08:29:47;;;;;;;4.33;2.97;;;2.80;94.20;;;1.76;86.44;97869.31;5009777;28;20874;-72
2023/01/17 08:32:15;;;;;;;3.93;2.13;;;2.80;94.50;;;1.75;86.16;97876.41;5010211;28;20215;-72
2023/01/17 08:34:43;;;;;;;5.63;2.30;;;2.80;94.40;;;1.80;85.86;97875.88;5010137;28;20691;-72
2023/01/17 08:37:11;;;;;;;3.60;2.17;;;2.80;94.30;;;1.77;85.61;97884.16;5009721;28;20291;-72
2023/01/17 08:39:41;;;;;;;4.30;2.27;;;2.80;94.20;;;1.78;85.47;97888.44;5009817;28;20302;-71
2023/01/17 08:42:09;;;;;;;4.87;2.27;;;2.90;94.10;;;1.84;85.78;97882.47;5009745;28;20211;-72
2023/01/17 08:44:38;;;;;;;6.50;2.20;;;2.90;94.30;;;1.86;85.58;97891.00;5009429;28;20679;-71
2023/01/17 08:47:06;;;;;;;5.43;2.37;;;2.90;94.20;;;1.85;85.28;97890.19;5009292;28;20219;-71
2023/01/17 08:49:34;;;;;;;4.23;2.27;;;2.90;94.00;;;1.88;85.08;97892.47;5009243;28;20931;-71
2023/01/17 08:52:04;;;;;;;4.80;2.40;;;2.90;94.00;;;1.92;85.04;97901.69;5009083;28;20232;-71
2023/01/17 08:54:32;;;;;;;5.37;2.20;;;3.00;94.00;;;1.92;85.40;97906.13;5009222;28;20203;-71
2023/01/17 08:57:03;;;;;;;5.07;2.40;;;3.00;94.00;;;1.94;84.57;97904.97;5009390;28;20262;-71
2023/01/17 08:59:31;;;;;;;4.00;2.10;;;3.00;93.80;;;1.97;84.74;97909.91;5009507;28;20227;-72
2023/01/17 09:02:05;;;;;;;6.77;2.73;;;3.00;93.60;;;2.01;84.77;97920.94;5009525;28;20203;-72
2023/01/17 09:04:34;;;;;;;5.80;2.07;;;3.10;93.70;;;2.01;83.44;97916.47;5009493;28;20257;-72
2023/01/17 09:07:02;;;;;;;3.63;2.23;;;3.10;93.10;;;2.01;83.45;97926.22;5009364;28;20212;-72
2023/01/17 09:09:30;;;;;;;4.80;1.93;;;3.10;93.10;;;2.04;83.36;97924.03;5009038;28;20606;-71
2023/01/17 09:11:58;;;;;;;5.53;2.53;;;3.10;93.00;;;2.03;83.48;97932.13;5009458;28;20262;-72
2023/01/17 09:14:27;;;;;;;4.20;2.00;;;3.10;93.00;;;2.04;83.57;97931.13;5009111;28;20207;-72
2023/01/17 09:16:55;;;;;;;3.30;2.03;;;3.10;93.20;;;2.06;83.77;97934.41;5009390;28;20215;-72
2023/01/17 09:19:23;;;;;;;5.30;2.23;;;3.10;93.30;;;2.05;83.01;97932.78;5009328;28;20623;-72
2023/01/17 09:21:51;;;;;;;8.33;2.17;;;3.10;92.80;;;2.03;82.98;97932.13;5009529;28;20208;-72
2023/01/17 09:24:19;;;;;;;5.30;2.23;;;3.10;92.70;;;1.96;81.54;97932.00;5009357;28;20293;-72
2023/01/17 09:26:48;;;;;;;5.53;1.90;;;3.00;92.20;;;1.95;81.97;97934.81;5009636;28;20219;-71
2023/01/17 09:29:17;;;;;;;8.53;2.00;;;3.00;92.20;;;2.00;82.59;97937.75;5012375;28;20326;-72
2023/01/17 09:31:47;;;;;;;7.57;2.57;;;3.00;92.50;;;2.01;82.13;97931.47;5012684;28;20214;-72
2023/01/17 09:34:17;;;;;;;6.83;2.27;;;3.10;92.20;;;2.03;81.95;97934.75;5012473;28;20549;-72
2023/01/17 09:36:45;;;;;;;6.17;2.30;;;3.10;92.10;;;2.08;82.51;97944.81;5012526;28;20196;-73
2023/01/17 09:39:14;;;;;;;16.63;3.57;;;3.10;92.40;;;2.07;81.15;97941.34;5012617;28;20231;-72
2023/01/17 09:41:52;;;;;;;10.50;2.50;;;3.10;91.80;;;2.11;81.03;97947.09;5012238;28;20721;-72
2023/01/17 09:44:29;;;;;;;8.37;2.77;;;3.20;91.80;;;2.16;81.18;97957.94;5012565;28;20192;-72
2023/01/17 09:47:04;;;;;;;6.07;1.83;;;3.20;91.80;;;2.15;79.76;97957.13;5012461;28;20194;-73
2023/01/17 09:49:38;;;;;;;41.83;5.37;;;3.20;91.30;;;2.19;80.71;97960.25;5012558;28;20227;-72
2023/01/17 09:52:11;;;;;;;9.57;2.70;;;3.20;91.40;;;2.21;80.96;97971.44;5012429;28;20192;-72
2023/01/17 09:54:44;;;;;;;14.43;3.10;;;3.30;91.60;;;2.22;79.80;97965.16;5012407;28;20211;-72
2023/01/17 09:57:38;;;;;;;5.67;2.27;;;3.20;91.20;;;2.24;80.06;97969.25;5012381;28;20192;-72
2023/01/17 10:00:25;;;;;;;15.40;3.10;;;3.30;91.30;;;2.27;80.10;97971.56;5012324;28;20206;-72
2023/01/17 10:03:27;;;;;;;17.17;3.47;;;3.30;91.10;;;2.31;79.26;97980.78;5012236;28;20694;-72
2023/01/17 10:06:22;;;;;;;5.77;2.47;;;3.40;91.20;;;2.34;79.31;97975.13;4999512;28;20203;-72
2023/01/17 10:09:24;;;;;;;6.10;2.37;;;3.40;90.80;;;2.36;78.03;97973.13;5011545;28;20231;-72
2023/01/17 10:12:17;;;;;;;4.77;2.23;;;3.40;90.40;;;2.38;78.30;97976.44;5011735;28;20219;-72
2023/01/17 10:15:05;;;;;;;4.27;2.00;;;3.40;90.20;;;2.38;78.61;97976.44;5011714;28;20214;-72
2023/01/17 10:17:51;;;;;;;6.23;1.90;;;3.40;90.30;;;2.40;77.86;97974.44;5011530;28;20720;-72
2023/01/17 10:20:42;;;;;;;7.13;1.90;;;3.40;90.10;;;2.43;76.59;97978.56;5011891;28;20214;-72
2023/01/17 10:23:38;;;;;;;5.83;1.67;;;3.50;89.30;;;2.44;76.92;97991.56;5011655;28;20559;-72
2023/01/17 10:26:11;;;;;;;3.93;1.60;;;3.50;89.60;;;2.45;76.52;97982.66;5011845;28;20188;-72
2023/01/17 10:28:49;;;;;;;6.50;1.87;;;3.50;88.80;;;2.49;77.77;97989.22;5011639;28;20254;-72
2023/01/17 10:31:23;;;;;;;4.17;2.00;;;3.50;89.40;;;2.51;77.43;97989.88;5011615;28;20254;-72
2023/01/17 10:33:54;;;;;;;15.00;3.53;;;3.60;89.60;;;2.56;77.58;97994.63;5011543;28;20211;-72
2023/01/17 10:36:27;;;;;;;13.33;3.13;;;3.60;89.90;;;2.57;75.26;97998.09;5011088;28;20192;-72
2023/01/17 10:39:00;;;;;;;12.73;3.33;;;3.60;88.70;;;2.58;75.44;97997.06;5010750;28;20758;-72
2023/01/17 10:41:33;;;;;;;21.33;3.37;;;3.60;87.40;;;2.59;75.60;97998.72;5011510;28;20191;-72
2023/01/17 10:44:14;;;;;;;20.60;3.70;;;3.60;87.00;;;2.62;75.02;97995.72;5011169;28;20222;-71
2023/01/17 10:46:51;;;;;;;18.27;3.40;;;3.70;87.00;;;2.65;75.51;97998.00;5011307;28;20199;-70
2023/01/17 10:49:24;;;;;;;8.23;2.40;;;3.70;87.70;;;2.67;75.20;98006.59;5010960;28;20285;-70
2023/01/17 10:52:11;;;;;;;6.87;2.37;;;3.70;86.80;;;2.64;75.16;98006.97;5010795;28;20207;-72
2023/01/17 10:55:03;;;;;;;4.73;1.90;;;3.60;86.50;;;2.64;73.85;97997.19;5010678;28;20610;-70
2023/01/17 10:57:42;;;;;;;6.03;2.27;;;3.70;85.50;;;2.66;74.49;98008.41;5010545;28;20765;-71
2023/01/17 11:00:44;;;;;;;6.73;2.40;;;3.70;85.80;;;2.65;72.99;98000.66;5011820;28;20223;-71
2023/01/17 11:03:14;;;;;;;13.17;3.00;;;3.60;84.40;;;2.70;73.94;97995.69;5029594;28;20361;-70
2023/01/17 11:05:43;;;;;;;11.43;2.77;;;3.70;85.20;;;2.72;73.08;98002.41;5030037;28;20418;-70
2023/01/17 11:08:14;;;;;;;6.73;2.17;;;3.70;84.70;;;2.76;73.89;98000.25;5030607;28;20237;-71
2023/01/17 11:10:45;;;;;;;6.33;2.00;;;3.80;85.20;;;2.80;72.21;98001.53;5030016;28;20206;-72
2023/01/17 11:13:29;;;;;;;4.50;1.70;;;3.80;85.40;;;2.80;71.50;97996.25;5030356;28;20227;-70
2023/01/17 11:16:01;;;;;;;3.53;1.50;;;3.80;82.70;;;2.81;72.54;97992.63;5029968;28;20668;-71
2023/01/17 11:18:32;;;;;;;4.40;2.10;;;3.80;83.70;;;2.86;72.78;97993.72;5030566;28;20226;-71
2023/01/17 11:21:14;;;;;;;4.23;1.90;;;3.90;83.90;;;2.91;72.51;98003.75;5027205;28;20644;-71
2023/01/17 11:23:46;;;;;;;8.07;2.30;;;3.90;84.20;;;2.90;72.56;98005.56;5010651;28;20203;-70
2023/01/17 11:26:26;;;;;;;4.57;2.13;;;3.90;83.20;;;2.90;71.96;97999.47;5010228;28;20641;-70
2023/01/17 11:29:15;;;;;;;5.50;1.90;;;3.90;82.60;;;2.90;72.11;98005.56;5010159;28;20707;-71
2023/01/17 11:31:43;;;;;;;6.30;2.40;;;3.90;83.10;;;2.99;73.14;98006.31;5010658;28;20245;-71
2023/01/17 11:34:17;;;;;;;7.17;2.27;;;4.00;83.60;;;3.02;72.42;98011.25;5010484;28;20298;-70
2023/01/17 11:36:46;;;;;;;6.50;2.00;;;4.10;83.20;;;3.04;71.67;98010.09;5010326;28;20207;-72
2023/01/17 11:39:28;;;;;;;5.77;2.30;;;4.10;82.80;;;3.13;72.54;98016.09;5010172;28;20724;-72
2023/01/17 11:41:57;;;;;;;9.50;2.13;;;4.10;83.00;;;3.17;71.27;98024.50;5010278;28;20257;-71
2023/01/17 11:44:29;;;;;;;5.33;1.83;;;4.20;82.00;;;3.18;70.72;98008.47;5010381;28;20223;-70
2023/01/17 11:47:15;;;;;;;7.10;2.03;;;4.20;82.50;;;3.21;70.85;98012.56;5010117;28;20207;-70
2023/01/17 11:49:47;;;;;;;7.83;2.10;;;4.20;81.80;;;3.18;70.34;98011.09;5009732;28;20227;-71
2023/01/17 11:52:24;;;;;;;6.50;2.13;;;4.20;81.40;;;3.19;70.27;98015.38;5009513;28;20214;-71
2023/01/17 11:54:55;;;;;;;5.40;1.70;;;4.20;81.80;;;3.27;71.18;97999.44;5009924;28;20220;-70
2023/01/17 11:57:27;;;;;;;6.67;2.07;;;4.30;82.00;;;3.35;71.42;98007.31;5009812;28;20195;-70
2023/01/17 12:00:15;;;;;;;5.53;2.10;;;4.40;82.20;;;3.43;72.19;98006.38;5009708;28;20211;-71
2023/01/17 12:03:14;;;;;;;4.87;2.90;;;4.40;82.70;;;3.47;70.17;98011.13;4990148;28;20312;-71
2023/01/17 12:05:58;;;;;;;6.13;2.23;;;4.50;81.30;;;3.55;70.75;98012.88;4989796;28;20207;-70
2023/01/17 12:08:50;;;;;;;5.80;2.07;;;4.60;81.10;;;3.60;70.29;98009.69;4990059;28;20235;-71
2023/01/17 12:11:36;;;;;;;9.17;2.03;;;4.60;80.60;;;3.54;69.84;98022.63;4990196;28;20255;-70
2023/01/17 12:14:21;;;;;;;2.77;1.83;;;4.60;79.90;;;3.65;69.03;98005.47;4990132;28;20227;-71
2023/01/17 12:17:09;;;;;;;5.97;1.97;;;4.60;80.40;;;3.62;69.54;98019.06;4989922;28;20680;-73